sensor_id;sensor_type;location;lat;lon;timestamp;temperature;humidity
13998;DHT22;7074;51.508;7.018;2023-04-03T02:53:25;4.80;99.90
13998;DHT22;7074;51.508;7.018;2023-04-03T02:56:47;4.80;99.90
13998;DHT22;7074;51.508;7.018;2023-04-03T05:28:20;4.10;99.90
13998;DHT22;7074;51.508;7.018;2023-04-03T05:31:08;4.10;99.90
13998;DHT22;7074;51.508;7.018;2023-04-03T05:33:44;4.00;99.90
13998;DHT22;7074;51.508;7.018;2023-04-03T05:36:19;4.10;99.90
13998;DHT22;7074;51.508;7.018;2023-04-03T05:38:58;4.10;99.90
13998;DHT22;7074;51.508;7.018;2023-04-03T05:41:28;4.10;99.90
13998;DHT22;7074;51.508;7.018;2023-04-03T05:44:08;4.10;99.90
13998;DHT22;7074;51.508;7.018;2023-04-03T05:46:42;4.10;99.90
13998;DHT22;7074;51.508;7.018;2023-04-03T05:49:27;4.10;99.90
13998;DHT22;7074;51.508;7.018;2023-04-03T05:52:05;4.10;99.90
13998;DHT22;7074;51.508;7.018;2023-04-03T05:54:36;4.20;99.90
13998;DHT22;7074;51.508;7.018;2023-04-03T05:57:21;4.10;99.90
13998;DHT22;7074;51.508;7.018;2023-04-03T06:00:02;4.10;99.90
13998;DHT22;7074;51.508;7.018;2023-04-03T06:02:54;4.20;99.90
13998;DHT22;7074;51.508;7.018;2023-04-03T06:05:35;4.10;99.90
13998;DHT22;7074;51.508;7.018;2023-04-03T06:08:10;4.10;99.90
13998;DHT22;7074;51.508;7.018;2023-04-03T06:11:00;4.20;99.90
13998;DHT22;7074;51.508;7.018;2023-04-03T06:13:50;4.20;99.90
13998;DHT22;7074;51.508;7.018;2023-04-03T06:20:14;4.40;99.90
13998;DHT22;7074;51.508;7.018;2023-04-03T06:23:25;4.50;99.90
13998;DHT22;7074;51.508;7.018;2023-04-03T06:26:20;4.40;99.90
13998;DHT22;7074;51.508;7.018;2023-04-03T06:28:55;4.40;99.90
13998;DHT22;7074;51.508;7.018;2023-04-03T06:31:23;4.50;99.90
13998;DHT22;7074;51.508;7.018;2023-04-03T06:34:00;4.50;99.90
13998;DHT22;7074;51.508;7.018;2023-04-03T06:36:33;4.50;99.90
13998;DHT22;7074;51.508;7.018;2023-04-03T06:39:08;4.60;99.90
13998;DHT22;7074;51.508;7.018;2023-04-03T06:41:49;4.60;99.90
13998;DHT22;7074;51.508;7.018;2023-04-03T06:44:32;4.70;99.90
13998;DHT22;7074;51.508;7.018;2023-04-03T06:47:02;4.80;99.90
13998;DHT22;7074;51.508;7.018;2023-04-03T06:49:36;4.90;99.90
13998;DHT22;7074;51.508;7.018;2023-04-03T06:52:08;4.90;99.90
13998;DHT22;7074;51.508;7.018;2023-04-03T06:54:52;4.80;99.90
13998;DHT22;7074;51.508;7.018;2023-04-03T06:57:29;4.80;99.90
13998;DHT22;7074;51.508;7.018;2023-04-03T07:00:27;4.70;99.90
13998;DHT22;7074;51.508;7.018;2023-04-03T07:03:31;4.80;99.90
13998;DHT22;7074;51.508;7.018;2023-04-03T07:06:01;5.00;99.90
13998;DHT22;7074;51.508;7.018;2023-04-03T07:08:36;5.00;99.90
13998;DHT22;7074;51.508;7.018;2023-04-03T07:11:09;5.00;99.90
13998;DHT22;7074;51.508;7.018;2023-04-03T07:13:56;5.10;99.90
13998;DHT22;7074;51.508;7.018;2023-04-03T07:16:58;5.20;99.90
13998;DHT22;7074;51.508;7.018;2023-04-03T07:19:39;5.30;99.90
13998;DHT22;7074;51.508;7.018;2023-04-03T07:22:23;5.30;99.90
13998;DHT22;7074;51.508;7.018;2023-04-03T07:25:06;5.40;99.90
13998;DHT22;7074;51.508;7.018;2023-04-03T07:27:56;5.40;99.90
13998;DHT22;7074;51.508;7.018;2023-04-03T07:30:28;5.50;99.90
13998;DHT22;7074;51.508;7.018;2023-04-03T07:33:05;5.60;99.90
13998;DHT22;7074;51.508;7.018;2023-04-03T07:36:05;5.70;99.90
13998;DHT22;7074;51.508;7.018;2023-04-03T07:38:52;5.70;99.90
13998;DHT22;7074;51.508;7.018;2023-04-03T07:54:41;6.20;99.90
13998;DHT22;7074;51.508;7.018;2023-04-03T07:57:16;6.40;99.90
13998;DHT22;7074;51.508;7.018;2023-04-03T08:00:08;6.70;99.90
13998;DHT22;7074;51.508;7.018;2023-04-03T09:32:12;8.80;90.20
13998;DHT22;7074;51.508;7.018;2023-04-03T09:35:52;8.50;84.40
13998;DHT22;7074;51.508;7.018;2023-04-03T09:38:47;8.70;78.60
13998;DHT22;7074;51.508;7.018;2023-04-03T09:43:20;8.80;73.40
13998;DHT22;7074;51.508;7.018;2023-04-03T09:49:21;8.70;65.70
13998;DHT22;7074;51.508;7.018;2023-04-03T09:52:31;9.00;63.90
13998;DHT22;7074;51.508;7.018;2023-04-03T10:00:31;9.10;65.10
13998;DHT22;7074;51.508;7.018;2023-04-03T10:03:27;9.20;64.70
13998;DHT22;7074;51.508;7.018;2023-04-03T10:06:29;9.10;63.80
13998;DHT22;7074;51.508;7.018;2023-04-03T10:10:00;9.10;61.60
13998;DHT22;7074;51.508;7.018;2023-04-03T10:13:10;9.10;61.50
13998;DHT22;7074;51.508;7.018;2023-04-03T10:16:20;9.20;64.30
13998;DHT22;7074;51.508;7.018;2023-04-03T10:19:58;9.30;65.90
13998;DHT22;7074;51.508;7.018;2023-04-03T10:23:15;9.50;65.50
13998;DHT22;7074;51.508;7.018;2023-04-03T10:26:12;9.50;59.60
13998;DHT22;7074;51.508;7.018;2023-04-03T11:20:31;9.80;60.70
13998;DHT22;7074;51.508;7.018;2023-04-03T20:19:17;7.80;78.90
13998;DHT22;7074;51.508;7.018;2023-04-03T20:29:46;7.70;86.00
13998;DHT22;7074;51.508;7.018;2023-04-03T20:33:34;7.60;82.40
13998;DHT22;7074;51.508;7.018;2023-04-03T20:57:24;7.20;85.90
13998;DHT22;7074;51.508;7.018;2023-04-03T21:01:20;7.20;86.30
13998;DHT22;7074;51.508;7.018;2023-04-03T21:34:33;7.20;91.00
13998;DHT22;7074;51.508;7.018;2023-04-03T21:46:13;7.00;91.50
13998;DHT22;7074;51.508;7.018;2023-04-03T21:50:13;7.00;91.60
13998;DHT22;7074;51.508;7.018;2023-04-03T21:54:18;7.00;91.50
13998;DHT22;7074;51.508;7.018;2023-04-03T22:12:49;6.80;94.10
13998;DHT22;7074;51.508;7.018;2023-04-03T22:15:16;6.80;94.80
13998;DHT22;7074;51.508;7.018;2023-04-03T22:17:43;6.70;95.70
13998;DHT22;7074;51.508;7.018;2023-04-03T22:20:10;6.70;96.10
13998;DHT22;7074;51.508;7.018;2023-04-03T22:22:38;6.60;97.60
13998;DHT22;7074;51.508;7.018;2023-04-03T22:25:06;6.50;98.30
13998;DHT22;7074;51.508;7.018;2023-04-03T22:27:33;6.50;98.60
13998;DHT22;7074;51.508;7.018;2023-04-03T22:30:03;6.50;98.90
13998;DHT22;7074;51.508;7.018;2023-04-03T22:32:30;6.30;99.50
13998;DHT22;7074;51.508;7.018;2023-04-03T22:34:57;6.30;99.70
13998;DHT22;7074;51.508;7.018;2023-04-03T22:37:25;6.30;99.90
13998;DHT22;7074;51.508;7.018;2023-04-03T22:39:52;6.20;99.90
13998;DHT22;7074;51.508;7.018;2023-04-03T22:42:19;6.10;99.90
13998;DHT22;7074;51.508;7.018;2023-04-03T22:44:46;6.00;99.90
13998;DHT22;7074;51.508;7.018;2023-04-03T22:47:15;5.90;99.90
13998;DHT22;7074;51.508;7.018;2023-04-03T22:49:42;5.80;99.90
13998;DHT22;7074;51.508;7.018;2023-04-03T22:52:10;5.80;99.90
13998;DHT22;7074;51.508;7.018;2023-04-03T22:54:37;5.70;99.90
13998;DHT22;7074;51.508;7.018;2023-04-03T22:57:04;5.70;99.90
13998;DHT22;7074;51.508;7.018;2023-04-03T22:59:31;5.70;99.90
13998;DHT22;7074;51.508;7.018;2023-04-03T23:01:58;5.60;99.90
13998;DHT22;7074;51.508;7.018;2023-04-03T23:04:27;5.50;99.90
13998;DHT22;7074;51.508;7.018;2023-04-03T23:06:54;5.40;99.90
13998;DHT22;7074;51.508;7.018;2023-04-03T23:09:21;5.40;99.90
13998;DHT22;7074;51.508;7.018;2023-04-03T23:11:49;5.30;99.90
13998;DHT22;7074;51.508;7.018;2023-04-03T23:14:16;5.30;99.90
13998;DHT22;7074;51.508;7.018;2023-04-03T23:16:43;5.30;99.90
13998;DHT22;7074;51.508;7.018;2023-04-03T23:19:11;5.20;99.90
13998;DHT22;7074;51.508;7.018;2023-04-03T23:21:39;5.20;99.90
13998;DHT22;7074;51.508;7.018;2023-04-03T23:24:07;5.10;99.90
13998;DHT22;7074;51.508;7.018;2023-04-03T23:26:34;5.10;99.90
13998;DHT22;7074;51.508;7.018;2023-04-03T23:29:01;5.00;99.90
13998;DHT22;7074;51.508;7.018;2023-04-03T23:31:28;5.00;99.90
13998;DHT22;7074;51.508;7.018;2023-04-03T23:33:55;5.00;99.90
13998;DHT22;7074;51.508;7.018;2023-04-03T23:36:22;5.00;99.90
13998;DHT22;7074;51.508;7.018;2023-04-03T23:38:54;5.00;99.90
13998;DHT22;7074;51.508;7.018;2023-04-03T23:41:21;5.00;99.90
13998;DHT22;7074;51.508;7.018;2023-04-03T23:43:49;4.90;99.90
13998;DHT22;7074;51.508;7.018;2023-04-03T23:46:16;4.90;99.90
13998;DHT22;7074;51.508;7.018;2023-04-03T23:48:44;4.90;99.90
13998;DHT22;7074;51.508;7.018;2023-04-03T23:51:11;4.90;99.90
13998;DHT22;7074;51.508;7.018;2023-04-03T23:53:39;4.80;99.90
13998;DHT22;7074;51.508;7.018;2023-04-03T23:56:07;4.80;99.90
13998;DHT22;7074;51.508;7.018;2023-04-03T23:58:37;4.80;99.90
